Time;durP1;ratioP1;P1;durP2;ratioP2;P2;SDS_P1;SDS_P2;PMS_P1;PMS_P2;Temp;Humidity;BMP_temperature;BMP_pressure;BME280_temperature;BME280_humidity;BME280_pressure;Samples;Min_cycle;Max_cycle;Signal;HPM_P1;HPM_P2
2021/06/15 00:02:01;;;;;;;3.70;2.80;;;22.80;63.70;;;;;;5034154;28;20161;-81
2021/06/15 00:04:27;;;;;;;4.90;3.33;;;22.70;64.10;;;;;;5033489;28;20221;-81
2021/06/15 00:06:53;;;;;;;3.73;3.30;;;22.70;64.60;;;;;;5033157;28;20207;-81
2021/06/15 00:09:19;;;;;;;5.80;3.50;;;22.60;64.80;;;;;;5033431;28;20181;-81
2021/06/15 00:11:45;;;;;;;5.03;4.03;;;22.60;65.10;;;;;;5033379;28;20608;-81
2021/06/15 00:14:11;;;;;;;5.43;3.57;;;22.60;65.70;;;;;;5033274;28;20596;-81
2021/06/15 00:16:36;;;;;;;4.57;3.43;;;22.50;66.00;;;;;;5032976;28;20163;-79
2021/06/15 00:19:02;;;;;;;4.10;3.50;;;22.50;66.50;;;;;;5032072;28;20702;-80
2021/06/15 00:21:28;;;;;;;6.77;3.70;;;22.40;66.60;;;;;;5033104;28;20181;-79
2021/06/15 00:23:53;;;;;;;6.70;3.80;;;22.40;67.10;;;;;;5033285;28;20223;-80
2021/06/15 00:26:19;;;;;;;6.13;3.80;;;22.40;67.60;;;;;;5032587;28;20190;-79
2021/06/15 00:28:46;;;;;;;6.97;4.13;;;22.40;68.00;;;;;;4999111;28;20174;-80
2021/06/15 00:31:12;;;;;;;6.00;4.07;;;22.30;68.40;;;;;;5032944;28;20166;-79
2021/06/15 00:33:38;;;;;;;7.23;3.87;;;22.30;68.90;;;;;;5035937;28;20616;-79
2021/06/15 00:36:04;;;;;;;5.03;4.53;;;22.30;69.20;;;;;;5014605;28;20300;-79
2021/06/15 00:38:30;;;;;;;4.83;4.33;;;22.20;69.60;;;;;;5015270;28;20667;-78
2021/06/15 00:40:56;;;;;;;4.57;3.37;;;22.20;70.00;;;;;;5032820;28;20668;-79
2021/06/15 00:43:21;;;;;;;5.10;3.80;;;22.20;70.40;;;;;;5032833;28;20201;-79
2021/06/15 00:45:47;;;;;;;4.37;3.37;;;22.20;70.90;;;;;;5014655;28;20193;-79
2021/06/15 00:48:34;;;;;;;5.73;5.13;;;22.10;71.20;;;;;;5032642;28;20197;-79
2021/06/15 00:51:01;;;;;;;4.77;4.07;;;22.10;73.30;;;;;;5015036;28;20569;-79
2021/06/15 00:53:28;;;;;;;4.40;3.67;;;22.10;72.10;;;;;;5014745;28;21282;-79
2021/06/15 00:55:55;;;;;;;4.70;3.90;;;22.00;72.60;;;;;;5014459;28;20600;-79
2021/06/15 00:58:21;;;;;;;4.63;4.17;;;22.00;73.20;;;;;;5014905;28;20572;-79
2021/06/15 01:00:48;;;;;;;8.07;4.70;;;22.00;73.60;;;;;;5014849;28;20575;-78
2021/06/15 01:03:16;;;;;;;4.50;4.10;;;22.00;74.10;;;;;;5031368;28;20583;-78
2021/06/15 01:05:42;;;;;;;5.57;4.27;;;21.90;74.70;;;;;;5030696;28;20612;-79
2021/06/15 01:08:19;;;;;;;5.50;4.30;;;21.90;74.90;;;;;;5031041;28;20675;-79
2021/06/15 01:11:24;;;;;;;4.37;4.00;;;21.90;76.00;;;;;;5036840;28;20937;-79
2021/06/15 01:14:04;;;;;;;5.27;3.93;;;21.80;76.00;;;;;;5010907;28;20647;-79
2021/06/15 01:16:37;;;;;;;5.40;4.20;;;21.80;76.80;;;;;;5030343;28;20583;-79
2021/06/15 01:19:23;;;;;;;4.93;4.03;;;21.80;76.90;;;;;;5014383;28;20579;-79
2021/06/15 01:22:34;;;;;;;5.23;4.07;;;21.70;78.50;;;;;;5014321;28;20630;-78
2021/06/15 01:25:12;;;;;;;4.90;3.97;;;21.70;78.10;;;;;;5030497;28;20648;-79
2021/06/15 01:28:01;;;;;;;5.80;4.70;;;21.60;78.30;;;;;;5013935;28;20635;-79
2021/06/15 01:30:35;;;;;;;5.37;4.60;;;21.60;79.30;;;;;;4997334;28;20932;-78
2021/06/15 01:33:08;;;;;;;7.63;5.30;;;21.60;79.70;;;;;;5014235;28;20681;-78
2021/06/15 01:35:37;;;;;;;5.17;4.23;;;21.60;80.40;;;;;;5032297;28;20628;-79
2021/06/15 01:38:07;;;;;;;6.60;4.70;;;21.50;80.60;;;;;;5014142;28;20927;-78
2021/06/15 01:40:39;;;;;;;6.83;5.50;;;21.50;81.30;;;;;;5031909;28;20585;-79
2021/06/15 01:43:18;;;;;;;5.03;4.53;;;21.50;82.00;;;;;;5014334;28;20646;-79
2021/06/15 01:45:47;;;;;;;7.27;5.13;;;21.50;82.60;;;;;;5034862;28;20618;-78
2021/06/15 01:48:26;;;;;;;9.10;5.70;;;21.40;82.80;;;;;;5031824;28;20680;-79
2021/06/15 01:50:54;;;;;;;6.37;5.77;;;21.40;83.60;;;;;;5014033;28;20675;-79
2021/06/15 01:53:22;;;;;;;8.83;5.90;;;21.40;83.90;;;;;;5031519;28;20620;-79
2021/06/15 01:55:55;;;;;;;8.20;6.53;;;21.40;84.40;;;;;;5029963;28;20631;-79
2021/06/15 01:58:27;;;;;;;7.13;6.13;;;21.40;85.10;;;;;;5013825;28;20901;-79
2021/06/15 02:00:56;;;;;;;6.87;5.80;;;21.30;85.70;;;;;;5013876;28;20576;-79
2021/06/15 02:03:24;;;;;;;7.03;6.20;;;21.30;86.20;;;;;;5030522;28;21142;-79
2021/06/15 02:05:54;;;;;;;5.60;4.73;;;21.30;86.60;;;;;;5013287;28;20612;-79
2021/06/15 02:08:43;;;;;;;7.63;6.30;;;21.20;87.10;;;;;;5013938;28;20589;-80
2021/06/15 02:11:28;;;;;;;7.83;5.30;;;21.20;88.20;;;;;;5013933;28;20596;-80
2021/06/15 02:14:18;;;;;;;7.80;6.37;;;21.10;87.50;;;;;;5030881;28;21012;-79
2021/06/15 02:16:59;;;;;;;7.67;6.33;;;21.10;87.70;;;;;;5013491;28;20568;-79
2021/06/15 02:19:36;;;;;;;9.67;6.50;;;21.10;88.30;;;;;;5014000;28;21032;-80
2021/06/15 02:22:08;;;;;;;9.83;6.40;;;21.00;88.80;;;;;;5036035;28;20652;-79
2021/06/15 02:24:46;;;;;;;7.77;5.57;;;21.00;89.70;;;;;;5031546;28;20674;-80
2021/06/15 02:27:16;;;;;;;7.03;6.33;;;20.90;90.20;;;;;;5030903;28;21014;-80
2021/06/15 02:29:43;;;;;;;8.67;6.37;;;20.90;90.00;;;;;;4997450;28;20568;-80
2021/06/15 02:32:13;;;;;;;9.57;5.63;;;20.90;90.20;;;;;;5013789;28;20641;-81
2021/06/15 02:34:47;;;;;;;7.93;6.50;;;20.90;90.50;;;;;;5031077;28;20639;-80
2021/06/15 02:37:20;;;;;;;7.43;6.73;;;20.80;90.90;;;;;;5012976;28;20572;-80
2021/06/15 02:39:47;;;;;;;8.40;6.17;;;20.80;91.10;;;;;;5013583;28;20568;-80
2021/06/15 02:42:15;;;;;;;7.10;5.67;;;20.80;91.20;;;;;;5014981;28;20909;-79
2021/06/15 02:44:46;;;;;;;11.17;6.63;;;20.70;91.30;;;;;;5017611;28;20597;-79
2021/06/15 02:47:16;;;;;;;8.13;6.80;;;20.70;91.60;;;;;;5033285;28;20568;-79
2021/06/15 02:49:56;;;;;;;9.00;7.00;;;20.70;91.80;;;;;;5017229;28;20580;-79
2021/06/15 02:52:46;;;;;;;11.37;6.57;;;20.60;92.90;;;;;;5034722;28;20564;-79
2021/06/15 02:55:23;;;;;;;11.33;7.10;;;20.60;92.60;;;;;;5017129;28;20687;-79
2021/06/15 02:57:49;;;;;;;7.10;5.97;;;20.60;92.70;;;;;;5018478;28;20560;-79
2021/06/15 03:00:16;;;;;;;7.03;6.33;;;20.50;92.60;;;;;;5036434;28;20974;-78
2021/06/15 03:02:43;;;;;;;8.17;6.63;;;20.50;92.90;;;;;;5033459;28;20683;-79
2021/06/15 03:05:11;;;;;;;9.17;8.07;;;20.50;93.30;;;;;;5034354;28;20971;-79
2021/06/15 03:07:37;;;;;;;8.57;7.33;;;20.40;93.50;;;;;;5000141;28;20663;-79
2021/06/15 03:10:07;;;;;;;9.17;8.27;;;20.40;93.80;;;;;;5033282;28;20941;-79
2021/06/15 03:12:49;;;;;;;7.37;6.60;;;20.40;94.10;;;;;;5017219;28;20675;-79
2021/06/15 03:15:20;;;;;;;8.17;7.10;;;20.30;94.70;;;;;;5033119;28;20639;-79
2021/06/15 03:18:05;;;;;;;7.67;6.80;;;20.30;94.60;;;;;;5034186;28;20689;-79
2021/06/15 03:20:33;;;;;;;9.40;7.70;;;20.30;95.20;;;;;;5034813;28;20560;-79
2021/06/15 03:23:05;;;;;;;8.50;7.70;;;20.20;94.90;;;;;;5017324;28;20583;-79
2021/06/15 03:25:33;;;;;;;8.47;7.60;;;20.20;95.20;;;;;;5019361;28;20600;-79
2021/06/15 03:28:23;;;;;;;8.60;7.43;;;20.20;95.60;;;;;;5004559;28;20576;-79
2021/06/15 03:30:53;;;;;;;8.70;7.50;;;20.20;96.30;;;;;;4987963;28;20584;-79
2021/06/15 03:33:23;;;;;;;8.20;6.93;;;20.20;96.10;;;;;;5002649;28;20613;-79
2021/06/15 03:35:56;;;;;;;11.80;8.70;;;20.10;96.30;;;;;;4990281;28;20627;-79
2021/06/15 03:38:33;;;;;;;9.77;8.13;;;20.10;96.70;;;;;;5016426;28;21045;-78
2021/06/15 03:41:01;;;;;;;10.37;8.50;;;20.10;97.10;;;;;;5033955;28;20564;-79
2021/06/15 03:43:30;;;;;;;9.20;7.80;;;20.10;97.00;;;;;;5033827;28;20927;-79
2021/06/15 03:46:08;;;;;;;10.30;8.90;;;20.10;97.40;;;;;;5033560;28;20604;-79
2021/06/15 03:48:38;;;;;;;10.63;9.53;;;20.10;97.90;;;;;;5033520;28;20619;-79
2021/06/15 03:51:04;;;;;;;10.50;8.80;;;20.10;97.90;;;;;;5033325;28;20587;-79
2021/06/15 03:53:33;;;;;;;12.50;10.10;;;20.10;98.00;;;;;;5033215;28;21199;-79
2021/06/15 03:56:04;;;;;;;12.13;9.13;;;20.10;98.40;;;;;;5015674;28;20623;-79
2021/06/15 03:58:31;;;;;;;11.63;9.40;;;20.10;98.60;;;;;;5015839;28;20718;-79
2021/06/15 04:00:59;;;;;;;9.00;8.03;;;20.10;98.80;;;;;;5016046;28;20604;-79
2021/06/15 04:03:26;;;;;;;12.37;9.83;;;20.10;98.90;;;;;;5015485;28;20580;-79
2021/06/15 04:05:54;;;;;;;13.40;10.63;;;20.20;99.20;;;;;;5033023;28;20663;-79
2021/06/15 04:08:21;;;;;;;10.10;9.10;;;20.10;99.40;;;;;;5015783;28;20584;-79
2021/06/15 04:10:54;;;;;;;10.83;9.83;;;20.20;99.70;;;;;;5018629;28;20680;-79
2021/06/15 04:13:22;;;;;;;13.47;9.87;;;20.20;99.90;;;;;;5031935;28;20619;-79
2021/06/15 04:15:48;;;;;;;11.83;10.60;;;20.30;99.90;;;;;;5032859;28;20954;-78
2021/06/15 04:18:20;;;;;;;11.47;10.27;;;20.30;99.90;;;;;;5015580;28;20572;-78
2021/06/15 04:20:50;;;;;;;10.40;8.67;;;20.30;99.90;;;;;;5015410;28;20599;-79
2021/06/15 04:23:19;;;;;;;13.43;10.60;;;20.40;99.90;;;;;;5031999;28;20675;-78
2021/06/15 04:25:46;;;;;;;12.00;10.63;;;20.40;99.90;;;;;;5032662;28;21023;-79
2021/06/15 04:28:13;;;;;;;12.57;8.60;;;20.50;99.90;;;;;;5032878;28;20919;-79
2021/06/15 04:30:40;;;;;;;12.50;11.17;;;20.50;99.90;;;;;;5033159;28;20675;-79
2021/06/15 04:33:09;;;;;;;11.63;10.47;;;20.60;99.90;;;;;;5015323;28;20624;-79
2021/06/15 04:35:38;;;;;;;11.13;10.03;;;20.60;99.90;;;;;;5014748;28;20612;-79
2021/06/15 04:38:10;;;;;;;14.77;10.97;;;20.70;99.90;;;;;;4998884;28;20584;-78
2021/06/15 04:40:38;;;;;;;10.87;9.77;;;20.80;99.90;;;;;;5015015;28;20718;-79
2021/06/15 04:43:49;;;;;;;11.73;10.10;;;20.90;99.90;;;;;;5015104;28;21170;-79
2021/06/15 04:46:22;;;;;;;12.30;10.97;;;20.90;99.90;;;;;;4971610;28;20632;-79
2021/06/15 04:49:32;;;;;;;11.13;10.13;;;21.00;99.90;;;;;;5019476;28;20576;-79
2021/06/15 04:52:02;;;;;;;11.67;9.90;;;21.10;99.90;;;;;;5003172;28;20639;-79
2021/06/15 04:54:34;;;;;;;11.93;9.90;;;21.10;99.90;;;;;;5032607;28;20683;-78
2021/06/15 04:57:03;;;;;;;13.77;10.80;;;21.20;99.90;;;;;;5014843;28;20623;-79
2021/06/15 04:59:30;;;;;;;12.00;10.77;;;21.30;99.90;;;;;;5032673;28;20588;-78
2021/06/15 05:01:58;;;;;;;12.10;9.60;;;21.40;99.90;;;;;;5032422;28;20615;-78
2021/06/15 05:04:25;;;;;;;12.83;11.27;;;21.50;99.90;;;;;;5031619;28;20711;-78
2021/06/15 05:06:51;;;;;;;10.53;9.47;;;21.60;99.90;;;;;;5031819;28;20604;-79
2021/06/15 05:09:23;;;;;;;13.50;10.30;;;21.70;99.90;;;;;;5032269;28;20583;-79
2021/06/15 05:11:50;;;;;;;11.80;10.23;;;21.80;99.90;;;;;;5014622;28;20579;-78
2021/06/15 05:14:17;;;;;;;11.47;10.47;;;21.90;99.90;;;;;;5032140;28;20636;-79
2021/06/15 05:16:45;;;;;;;11.50;10.00;;;22.00;99.90;;;;;;5031790;28;20575;-78
2021/06/15 05:19:11;;;;;;;11.93;10.63;;;22.20;99.90;;;;;;5032113;28;20568;-79
2021/06/15 05:21:43;;;;;;;12.57;9.10;;;22.40;99.90;;;;;;5014991;28;20556;-78
2021/06/15 05:24:47;;;;;;;12.60;11.10;;;22.50;99.90;;;;;;5034328;28;20169;-78
2021/06/15 05:27:15;;;;;;;11.53;10.20;;;22.60;99.90;;;;;;5002869;28;20595;-78
2021/06/15 05:29:41;;;;;;;12.60;10.33;;;22.80;99.90;;;;;;5031931;28;20572;-78
2021/06/15 05:32:08;;;;;;;12.63;10.23;;;22.90;99.90;;;;;;5031953;28;20572;-79
2021/06/15 05:34:34;;;;;;;9.83;8.93;;;23.00;99.90;;;;;;5013913;28;20299;-79
2021/06/15 05:37:01;;;;;;;10.67;9.33;;;23.10;99.90;;;;;;5031716;28;20560;-79
2021/06/15 05:39:27;;;;;;;9.60;8.60;;;23.20;99.90;;;;;;5030725;28;20615;-78
2021/06/15 05:41:53;;;;;;;11.10;10.00;;;23.30;99.90;;;;;;5014118;28;20569;-78
2021/06/15 05:44:19;;;;;;;11.53;10.33;;;23.50;99.90;;;;;;5031698;28;20193;-78
2021/06/15 05:46:45;;;;;;;9.90;9.00;;;23.60;99.90;;;;;;5013816;28;20618;-79
2021/06/15 05:49:11;;;;;;;11.27;8.80;;;23.80;99.90;;;;;;5031502;28;20165;-79
2021/06/15 05:51:38;;;;;;;9.50;8.50;;;24.00;99.90;;;;;;5014194;28;20249;-79
2021/06/15 05:54:04;;;;;;;9.87;8.87;;;24.30;99.90;;;;;;5013903;28;20628;-79
2021/06/15 05:56:30;;;;;;;10.40;9.43;;;24.70;99.90;;;;;;4997312;28;20568;-79
2021/06/15 05:58:56;;;;;;;8.80;8.00;;;25.20;99.90;;;;;;5014357;28;20608;-78
2021/06/15 06:01:22;;;;;;;11.07;8.17;;;25.70;99.90;;;;;;5018269;28;20653;-78
2021/06/15 06:03:59;;;;;;;8.53;7.70;;;26.10;99.90;;;;;;4993946;28;20185;-78
2021/06/15 06:09:09;;;;;;;8.90;8.00;;;26.80;99.40;;;;;;4977943;28;20580;-78
2021/06/15 06:11:35;;;;;;;8.30;7.50;;;27.00;98.60;;;;;;4996181;28;21105;-78
2021/06/15 06:14:00;;;;;;;8.77;7.90;;;27.20;98.00;;;;;;5013462;28;20198;-77
2021/06/15 06:16:27;;;;;;;9.20;7.10;;;27.40;97.30;;;;;;5015263;28;20170;-78
2021/06/15 06:18:53;;;;;;;7.87;7.17;;;27.50;97.00;;;;;;5017696;28;20172;-78
2021/06/15 06:21:19;;;;;;;10.30;7.43;;;27.60;96.60;;;;;;5017877;28;20923;-78
2021/06/15 06:23:45;;;;;;;10.73;9.60;;;27.80;96.20;;;;;;5017582;28;21030;-78
2021/06/15 06:26:10;;;;;;;9.07;8.17;;;27.90;96.00;;;;;;5017306;28;20628;-77
2021/06/15 06:28:36;;;;;;;11.77;7.80;;;28.20;95.90;;;;;;5035178;28;20638;-78
2021/06/15 06:31:02;;;;;;;8.77;7.97;;;28.50;95.70;;;;;;5001297;28;20583;-77
2021/06/15 06:33:28;;;;;;;10.40;7.50;;;29.00;95.50;;;;;;5033964;28;20205;-77
2021/06/15 06:35:53;;;;;;;9.40;7.90;;;29.70;95.40;;;;;;5038162;28;20198;-77
2021/06/15 06:38:20;;;;;;;11.43;10.40;;;30.40;94.40;;;;;;5017514;28;20173;-78
2021/06/15 06:40:45;;;;;;;9.77;8.43;;;31.10;93.50;;;;;;5034993;28;20170;-77
2021/06/15 06:43:11;;;;;;;9.80;8.80;;;31.90;92.50;;;;;;5033824;28;20579;-78
2021/06/15 06:45:37;;;;;;;7.77;7.03;;;32.60;90.40;;;;;;5000701;28;20195;-78
2021/06/15 06:48:04;;;;;;;8.17;7.40;;;33.20;88.60;;;;;;5000550;28;20180;-76
2021/06/15 06:50:30;;;;;;;7.80;7.10;;;33.70;84.20;;;;;;5033653;28;20171;-76
2021/06/15 06:52:56;;;;;;;10.63;7.53;;;34.40;81.70;;;;;;5017178;28;20581;-76
2021/06/15 06:55:22;;;;;;;8.33;7.63;;;34.90;79.80;;;;;;5034654;28;20194;-78
2021/06/15 06:57:48;;;;;;;10.83;6.67;;;35.50;78.00;;;;;;5016558;28;21225;-78
2021/06/15 07:00:14;;;;;;;8.73;6.70;;;36.00;75.70;;;;;;5017161;28;20174;-78
2021/06/15 07:02:41;;;;;;;8.10;6.30;;;36.60;73.90;;;;;;5000610;28;20174;-77
2021/06/15 07:05:07;;;;;;;7.67;6.97;;;37.10;71.30;;;;;;5017076;28;20599;-76
2021/06/15 07:07:34;;;;;;;9.13;6.77;;;37.50;68.30;;;;;;5034410;28;20572;-77
2021/06/15 07:10:00;;;;;;;7.50;6.80;;;37.90;65.70;;;;;;5017098;28;20587;-77
2021/06/15 07:12:26;;;;;;;7.27;6.57;;;38.20;63.10;;;;;;5038494;28;20587;-76
2021/06/15 07:14:52;;;;;;;10.67;6.60;;;38.60;61.10;;;;;;5035272;28;20984;-77
2021/06/15 07:17:18;;;;;;;6.90;5.57;;;38.90;59.50;;;;;;5016672;28;20196;-77
2021/06/15 07:19:43;;;;;;;6.37;5.73;;;39.30;58.90;;;;;;5016524;28;20172;-77
2021/06/15 07:22:09;;;;;;;7.73;6.50;;;39.50;57.40;;;;;;5034105;28;20165;-77
2021/06/15 07:24:35;;;;;;;7.10;6.40;;;39.90;56.40;;;;;;5016595;28;20216;-79
2021/06/15 07:27:02;;;;;;;6.80;6.20;;;40.20;54.90;;;;;;5032649;28;20545;-79
2021/06/15 07:29:27;;;;;;;7.17;5.83;;;40.50;53.80;;;;;;4999690;28;20587;-79
2021/06/15 07:31:54;;;;;;;7.10;6.33;;;40.80;53.20;;;;;;5034180;28;20580;-79
2021/06/15 07:34:20;;;;;;;6.20;5.40;;;41.00;52.40;;;;;;5016316;28;20200;-79
2021/06/15 07:36:46;;;;;;;7.90;6.13;;;41.30;52.20;;;;;;5032684;28;20614;-79
2021/06/15 07:39:12;;;;;;;6.00;5.30;;;41.50;51.10;;;;;;5033938;28;20727;-79
2021/06/15 07:41:38;;;;;;;6.50;5.90;;;41.80;50.20;;;;;;5034000;28;20173;-79
2021/06/15 07:44:08;;;;;;;6.60;6.00;;;41.90;49.60;;;;;;5016387;28;20635;-79
2021/06/15 07:46:33;;;;;;;8.37;5.80;;;42.10;48.40;;;;;;5016059;28;20749;-79
2021/06/15 07:48:59;;;;;;;7.23;6.53;;;42.30;47.40;;;;;;5036992;28;20651;-79
2021/06/15 07:51:25;;;;;;;6.80;6.20;;;42.40;46.90;;;;;;5032806;28;20327;-79
2021/06/15 07:53:51;;;;;;;7.30;6.70;;;42.50;46.10;;;;;;5033708;28;21104;-79
2021/06/15 07:56:16;;;;;;;6.40;5.80;;;42.50;45.40;;;;;;5032147;28;20284;-79
2021/06/15 07:58:42;;;;;;;6.90;6.20;;;42.40;44.80;;;;;;5016059;28;20181;-79
2021/06/15 08:01:08;;;;;;;6.00;4.07;;;42.40;44.20;;;;;;5033990;28;20258;-79
2021/06/15 08:03:34;;;;;;;4.60;3.97;;;42.30;44.20;;;;;;5032290;28;20200;-79
2021/06/15 08:06:00;;;;;;;4.40;4.00;;;42.40;44.90;;;;;;5033082;28;20221;-79
2021/06/15 08:08:26;;;;;;;5.10;4.20;;;42.50;44.20;;;;;;5031885;28;20182;-81
2021/06/15 08:10:52;;;;;;;4.30;3.90;;;42.60;43.90;;;;;;5030554;28;20600;-81
2021/06/15 08:13:18;;;;;;;4.00;3.60;;;42.70;43.50;;;;;;5033220;28;20165;-81
2021/06/15 08:15:48;;;;;;;4.73;4.33;;;42.80;43.10;;;;;;5032431;28;20182;-81
2021/06/15 08:18:14;;;;;;;3.47;3.17;;;42.90;42.40;;;;;;5015361;28;20174;-82
2021/06/15 08:20:41;;;;;;;5.07;4.10;;;43.00;42.20;;;;;;5015497;28;20568;-81
2021/06/15 08:23:06;;;;;;;4.63;3.73;;;43.00;41.40;;;;;;5033499;28;20647;-81
2021/06/15 08:25:32;;;;;;;5.87;4.00;;;43.00;41.50;;;;;;5018721;28;20958;-80
2021/06/15 08:27:58;;;;;;;5.07;4.57;;;43.00;41.80;;;;;;5031892;28;20190;-79
2021/06/15 08:30:24;;;;;;;6.33;3.30;;;43.10;41.70;;;;;;5031936;28;20261;-79
2021/06/15 08:32:50;;;;;;;4.43;4.10;;;43.10;41.40;;;;;;5032838;28;20174;-81
2021/06/15 08:35:15;;;;;;;4.07;3.40;;;43.10;40.80;;;;;;5032451;28;20650;-80
2021/06/15 08:37:41;;;;;;;3.13;2.90;;;43.10;40.30;;;;;;5032199;28;20584;-80
2021/06/15 08:40:08;;;;;;;5.60;3.00;;;43.00;40.70;;;;;;5031354;28;20177;-80
2021/06/15 08:42:37;;;;;;;4.60;2.97;;;43.10;40.40;;;;;;5032577;28;20580;-79
2021/06/15 08:45:04;;;;;;;4.00;3.13;;;43.10;39.90;;;;;;5032335;28;20643;-79
2021/06/15 08:47:30;;;;;;;3.97;3.30;;;43.10;39.50;;;;;;5014611;28;20941;-80
2021/06/15 08:49:56;;;;;;;2.87;1.93;;;43.00;38.80;;;;;;5031037;28;20577;-80
2021/06/15 08:52:26;;;;;;;2.17;1.83;;;42.90;39.20;;;;;;5032457;28;20525;-79
2021/06/15 08:54:53;;;;;;;4.10;2.67;;;42.90;39.50;;;;;;5032560;28;20728;-81
2021/06/15 08:57:21;;;;;;;2.77;1.80;;;43.00;38.80;;;;;;5032629;28;20572;-82
2021/06/15 08:59:47;;;;;;;2.97;1.90;;;43.10;39.00;;;;;;5015209;28;21220;-81
2021/06/15 09:02:13;;;;;;;3.63;2.67;;;43.20;39.00;;;;;;5035467;28;20583;-81
2021/06/15 09:04:39;;;;;;;4.70;2.80;;;43.20;38.30;;;;;;5032519;28;20205;-82
2021/06/15 09:07:04;;;;;;;3.50;3.00;;;43.30;39.00;;;;;;5031980;28;20565;-81
2021/06/15 09:09:56;;;;;;;3.50;2.63;;;43.50;38.60;;;;;;5032598;28;20489;-81
2021/06/15 09:12:22;;;;;;;2.33;2.13;;;43.70;39.50;;;;;;5013524;28;20188;-80
2021/06/15 09:14:53;;;;;;;4.77;2.10;;;43.80;38.80;;;;;;5032203;28;20687;-79
2021/06/15 09:17:29;;;;;;;2.67;1.73;;;43.80;37.60;;;;;;5014133;28;20169;-80
2021/06/15 09:19:56;;;;;;;2.80;1.50;;;43.90;37.50;;;;;;5014354;28;20586;-80
2021/06/15 09:22:25;;;;;;;3.50;1.67;;;43.80;38.10;;;;;;5013912;28;20626;-80
2021/06/15 09:24:52;;;;;;;3.80;2.03;;;43.90;37.70;;;;;;5031880;28;20665;-82
2021/06/15 09:27:17;;;;;;;4.17;1.57;;;44.00;37.50;;;;;;5031320;28;20667;-79
2021/06/15 09:29:54;;;;;;;1.93;1.37;;;44.00;36.90;;;;;;5031866;28;20994;-80
2021/06/15 09:32:25;;;;;;;2.60;1.60;;;44.00;37.00;;;;;;5013964;28;20629;-79
2021/06/15 09:35:04;;;;;;;2.80;2.07;;;44.00;36.80;;;;;;5032057;28;20979;-78
2021/06/15 09:37:38;;;;;;;3.23;1.67;;;44.00;36.80;;;;;;5017186;28;20584;-78
2021/06/15 09:40:15;;;;;;;2.90;2.03;;;44.00;36.70;;;;;;5030469;28;20950;-78
2021/06/15 09:42:48;;;;;;;4.07;1.80;;;44.00;36.90;;;;;;5031554;28;20674;-79
2021/06/15 09:45:22;;;;;;;2.10;1.60;;;44.00;37.10;;;;;;5013662;28;20704;-79
2021/06/15 09:47:48;;;;;;;4.90;1.70;;;44.10;37.20;;;;;;5029903;28;20580;-78
2021/06/15 09:50:16;;;;;;;2.97;1.73;;;44.00;36.70;;;;;;5031117;28;20581;-78
2021/06/15 09:52:42;;;;;;;2.07;1.57;;;44.00;37.10;;;;;;5031249;28;20664;-78
2021/06/15 09:55:09;;;;;;;2.20;1.43;;;44.00;36.70;;;;;;5013783;28;20695;-78
2021/06/15 09:57:39;;;;;;;2.80;1.60;;;44.00;36.80;;;;;;5030857;28;20647;-78
2021/06/15 10:00:09;;;;;;;2.40;1.60;;;43.90;36.70;;;;;;5013822;28;20967;-78
2021/06/15 10:02:57;;;;;;;2.30;1.90;;;43.90;36.50;;;;;;5013506;28;20621;-79
2021/06/15 10:05:33;;;;;;;2.10;1.80;;;43.80;35.80;;;;;;5030941;28;21022;-78
2021/06/15 10:08:02;;;;;;;2.63;1.60;;;43.70;35.90;;;;;;5030099;28;20579;-78
2021/06/15 10:10:32;;;;;;;4.60;1.43;;;43.40;35.70;;;;;;5031811;28;20603;-78
2021/06/15 10:12:58;;;;;;;3.40;1.87;;;43.30;36.50;;;;;;5032980;28;20583;-77
2021/06/15 10:15:26;;;;;;;4.80;1.70;;;43.30;36.60;;;;;;5015798;28;20611;-78
2021/06/15 10:17:52;;;;;;;4.00;1.90;;;43.20;36.30;;;;;;5009966;28;20589;-78
2021/06/15 10:20:21;;;;;;;2.70;1.73;;;43.10;36.40;;;;;;5011698;28;20711;-77
2021/06/15 10:22:48;;;;;;;1.70;1.50;;;43.00;36.50;;;;;;5011300;28;20175;-76
2021/06/15 10:25:15;;;;;;;2.77;1.30;;;43.00;36.60;;;;;;5010153;28;20689;-79
2021/06/15 10:27:41;;;;;;;2.60;2.00;;;43.00;37.00;;;;;;5010899;28;20565;-78
2021/06/15 10:30:09;;;;;;;3.30;1.53;;;43.10;36.70;;;;;;5010174;28;20585;-78
2021/06/15 10:32:48;;;;;;;2.10;1.73;;;43.10;36.30;;;;;;4993520;28;20923;-78
2021/06/15 10:35:29;;;;;;;4.60;1.60;;;43.10;36.00;;;;;;5009927;28;20621;-78
2021/06/15 10:37:55;;;;;;;3.17;1.50;;;43.10;36.10;;;;;;4993487;28;20577;-78
2021/06/15 10:40:21;;;;;;;2.10;1.47;;;43.00;36.10;;;;;;4993878;28;21190;-80
2021/06/15 10:43:05;;;;;;;3.40;1.90;;;42.80;35.90;;;;;;5010013;28;20253;-79
2021/06/15 10:45:31;;;;;;;5.60;1.97;;;42.60;35.80;;;;;;5009750;28;20252;-80
2021/06/15 10:48:06;;;;;;;3.47;1.20;;;42.30;35.80;;;;;;5011336;28;21132;-79
2021/06/15 10:50:36;;;;;;;3.27;1.70;;;42.00;36.30;;;;;;5011762;28;20618;-78
2021/06/15 10:53:04;;;;;;;2.57;1.47;;;41.80;36.30;;;;;;5011122;28;20985;-79
2021/06/15 10:55:49;;;;;;;2.37;2.00;;;41.60;36.50;;;;;;5009712;28;20605;-78
2021/06/15 10:58:36;;;;;;;2.40;1.30;;;41.50;36.40;;;;;;5011112;28;21120;-78
2021/06/15 11:01:22;;;;;;;2.47;1.70;;;41.20;36.50;;;;;;5010247;28;21155;-78
2021/06/15 11:04:02;;;;;;;3.13;1.50;;;40.80;36.70;;;;;;4980203;28;21231;-78
2021/06/15 11:06:28;;;;;;;4.10;1.77;;;40.50;36.90;;;;;;5013831;28;20569;-79
2021/06/15 11:09:02;;;;;;;1.73;1.10;;;40.30;36.90;;;;;;5012552;28;20576;-79
2021/06/15 11:11:29;;;;;;;2.30;1.60;;;40.10;37.20;;;;;;5013361;28;20246;-79
2021/06/15 11:14:03;;;;;;;2.23;1.60;;;39.80;37.10;;;;;;4996623;28;20581;-78
2021/06/15 11:16:45;;;;;;;1.70;1.23;;;39.40;37.90;;;;;;5014288;28;20955;-78
2021/06/15 11:19:11;;;;;;;2.20;1.40;;;39.10;37.90;;;;;;5013023;28;20600;-79
2021/06/15 11:21:53;;;;;;;2.00;1.30;;;38.90;38.10;;;;;;5014390;28;20664;-78
2021/06/15 11:24:26;;;;;;;3.30;1.10;;;38.90;38.80;;;;;;5014213;28;20715;-78
2021/06/15 11:27:15;;;;;;;1.60;0.90;;;38.80;38.40;;;;;;5018040;28;20605;-78
2021/06/15 11:29:43;;;;;;;1.97;1.10;;;38.80;38.40;;;;;;5014295;28;20974;-78
2021/06/15 11:32:17;;;;;;;2.03;1.10;;;38.70;38.80;;;;;;5015429;28;20567;-78
2021/06/15 11:35:03;;;;;;;2.23;1.20;;;38.70;38.60;;;;;;5033664;28;21075;-79
2021/06/15 11:37:42;;;;;;;2.40;1.53;;;38.60;38.40;;;;;;5013208;28;20596;-79
2021/06/15 11:40:20;;;;;;;1.87;1.17;;;38.50;38.10;;;;;;5012965;28;21140;-78
2021/06/15 11:42:50;;;;;;;3.03;1.00;;;38.40;38.20;;;;;;5012595;28;21085;-79
2021/06/15 11:45:20;;;;;;;2.43;1.23;;;38.40;39.10;;;;;;5013920;28;20957;-78
2021/06/15 11:47:48;;;;;;;1.90;0.90;;;38.30;38.60;;;;;;5012159;28;20565;-78
2021/06/15 11:50:20;;;;;;;1.70;1.00;;;38.30;38.30;;;;;;5028866;28;20566;-78
2021/06/15 11:52:50;;;;;;;2.37;1.20;;;38.30;38.10;;;;;;5012860;28;20565;-78
2021/06/15 11:55:17;;;;;;;1.80;1.10;;;38.10;38.20;;;;;;5013402;28;20604;-78
2021/06/15 11:57:43;;;;;;;1.50;1.00;;;38.00;38.00;;;;;;5013378;28;20573;-78
2021/06/15 12:00:18;;;;;;;1.50;0.80;;;37.80;37.90;;;;;;4996141;28;20685;-78
2021/06/15 12:02:45;;;;;;;1.40;1.00;;;37.60;38.10;;;;;;5016235;28;20565;-78
2021/06/15 12:05:13;;;;;;;2.27;1.00;;;37.60;38.30;;;;;;5012188;28;20589;-79
2021/06/15 12:07:50;;;;;;;2.47;1.00;;;37.30;38.20;;;;;;5013189;28;20648;-78
2021/06/15 12:10:18;;;;;;;2.47;1.10;;;37.20;38.30;;;;;;5011800;28;20583;-78
2021/06/15 12:13:04;;;;;;;1.73;0.90;;;37.00;38.30;;;;;;5012358;28;20556;-78
2021/06/15 12:15:45;;;;;;;1.43;0.70;;;36.70;38.20;;;;;;5011365;28;20589;-77
2021/06/15 12:18:23;;;;;;;1.70;1.00;;;36.50;38.70;;;;;;5032288;28;20572;-78
2021/06/15 12:20:54;;;;;;;1.40;0.90;;;36.30;38.70;;;;;;5032800;28;20564;-77
2021/06/15 12:23:32;;;;;;;2.00;0.97;;;36.20;39.20;;;;;;5031607;28;20718;-78
2021/06/15 12:26:20;;;;;;;2.00;1.20;;;36.00;39.60;;;;;;5014631;28;20699;-78
2021/06/15 12:28:51;;;;;;;2.30;1.20;;;35.90;39.50;;;;;;5008611;28;20577;-78
2021/06/15 12:31:26;;;;;;;2.97;0.80;;;35.80;39.90;;;;;;5015138;28;20572;-78
2021/06/15 12:33:58;;;;;;;1.83;0.97;;;35.70;40.00;;;;;;5032678;28;20633;-78
2021/06/15 12:36:31;;;;;;;1.80;0.90;;;35.60;39.70;;;;;;5032241;28;20664;-78
2021/06/15 12:39:15;;;;;;;2.00;0.90;;;35.50;39.50;;;;;;5035952;28;20632;-78
2021/06/15 12:41:47;;;;;;;1.97;1.00;;;35.20;39.60;;;;;;5032809;28;20653;-78
2021/06/15 12:44:14;;;;;;;1.60;0.90;;;35.00;40.00;;;;;;5014444;28;20630;-77
2021/06/15 12:46:41;;;;;;;2.13;1.20;;;34.80;39.60;;;;;;5014564;28;20686;-77
2021/06/15 12:49:17;;;;;;;2.30;1.10;;;34.70;39.70;;;;;;5032262;28;20565;-78
2021/06/15 12:52:01;;;;;;;2.30;1.20;;;34.50;39.90;;;;;;5014701;28;20897;-77
2021/06/15 12:54:32;;;;;;;2.90;1.47;;;34.30;40.00;;;;;;5031989;28;20601;-77
2021/06/15 12:57:16;;;;;;;2.30;1.10;;;34.00;40.30;;;;;;5014312;28;20936;-77
2021/06/15 12:59:55;;;;;;;1.50;1.10;;;33.70;40.30;;;;;;5034222;28;20588;-77
2021/06/15 13:02:23;;;;;;;2.77;1.40;;;33.40;40.80;;;;;;5015074;28;20577;-77
2021/06/15 13:04:58;;;;;;;2.73;1.00;;;33.10;40.60;;;;;;5031758;28;20623;-77